createdAt,value
2018-05-14T00:01:01.954Z,15.33
2018-05-14T00:05:57.815Z,16.40
2018-05-14T00:10:53.711Z,16.97
2018-05-14T00:15:49.588Z,16.23
2018-05-14T00:20:45.454Z,16.10
2018-05-14T00:25:41.353Z,13.93
2018-05-14T00:30:37.257Z,15.63
2018-05-14T00:35:33.104Z,15.67
2018-05-14T00:40:28.951Z,15.47
2018-05-14T00:45:24.804Z,16.23
2018-05-14T00:50:20.673Z,16.60
2018-05-14T00:55:16.574Z,14.70
2018-05-14T01:00:12.477Z,14.27
2018-05-14T01:05:08.406Z,14.13
2018-05-14T01:10:04.274Z,14.20
2018-05-14T01:15:00.138Z,15.13
2018-05-14T01:19:55.983Z,14.80
2018-05-14T01:24:58.937Z,14.63
2018-05-14T01:29:54.787Z,14.00
2018-05-14T01:34:50.659Z,14.70
2018-05-14T01:39:46.561Z,15.10
2018-05-14T01:44:42.415Z,14.20
2018-05-14T01:49:38.391Z,14.13
2018-05-14T01:54:34.236Z,14.17
2018-05-14T01:59:30.106Z,14.23
2018-05-14T02:04:25.964Z,12.20
2018-05-14T02:09:21.802Z,11.47
2018-05-14T02:14:17.647Z,11.53
2018-05-14T02:19:13.522Z,11.20
2018-05-14T02:24:09.383Z,11.77
2018-05-14T02:29:05.281Z,12.23
2018-05-14T02:34:01.159Z,12.93
2018-05-14T02:38:57.032Z,12.27
2018-05-14T02:43:53.108Z,13.77
2018-05-14T02:48:49.065Z,14.47
2018-05-14T02:53:44.964Z,14.20
2018-05-14T02:58:40.808Z,14.83
2018-05-14T03:03:36.689Z,15.70
2018-05-14T03:08:32.540Z,16.37
2018-05-14T03:13:28.396Z,17.00
2018-05-14T03:18:24.289Z,16.57
2018-05-14T03:23:21.022Z,17.53
2018-05-14T03:28:16.911Z,17.83
2018-05-14T03:33:12.771Z,18.53
2018-05-14T03:38:08.650Z,19.50
2018-05-14T03:43:04.510Z,19.30
2018-05-14T03:48:00.347Z,17.43
2018-05-14T03:52:56.179Z,18.23
2018-05-14T03:57:52.041Z,18.53
2018-05-14T04:02:54.118Z,20.67
2018-05-14T04:07:49.990Z,20.47
2018-05-14T04:12:45.888Z,21.47
2018-05-14T04:17:41.737Z,20.40
2018-05-14T04:22:37.617Z,21.47
2018-05-14T04:27:33.476Z,21.90
2018-05-14T04:32:29.329Z,22.43
2018-05-14T04:37:25.229Z,21.97
2018-05-14T04:42:21.117Z,21.30
2018-05-14T04:47:16.990Z,20.97
2018-05-14T04:52:12.917Z,22.65
2018-05-14T04:57:08.750Z,20.80
2018-05-14T05:02:04.679Z,20.17
2018-05-14T05:07:00.603Z,19.53
2018-05-14T05:11:56.474Z,21.27
2018-05-14T05:16:52.333Z,20.13
2018-05-14T05:21:48.228Z,19.57
2018-05-14T05:26:44.079Z,20.23
2018-05-14T05:31:40.091Z,20.50
2018-05-14T05:36:35.979Z,19.83
2018-05-14T05:41:31.862Z,17.83
2018-05-14T05:46:28.782Z,17.87
2018-05-14T05:51:24.663Z,14.50
2018-05-14T05:56:20.536Z,14.63
2018-05-14T06:01:16.512Z,14.83
2018-05-14T06:06:12.303Z,13.57
2018-05-14T06:11:08.168Z,12.67
2018-05-14T06:16:04.032Z,10.67
2018-05-14T06:20:59.921Z,10.90
2018-05-14T06:25:55.814Z,10.47
2018-05-14T06:30:51.658Z,9.70
2018-05-14T06:35:47.555Z,9.20
2018-05-14T06:40:43.442Z,8.50
2018-05-14T06:45:39.345Z,7.93
2018-05-14T06:50:35.194Z,8.25
2018-05-14T06:55:31.077Z,7.80
2018-05-14T07:00:26.978Z,7.03
2018-05-14T07:05:22.822Z,6.60
2018-05-14T07:10:18.695Z,6.72
2018-05-14T07:15:14.581Z,6.95
2018-05-14T07:20:10.444Z,6.65
2018-05-14T07:25:06.341Z,6.22
2018-05-14T07:30:02.221Z,6.75
2018-05-14T07:34:58.123Z,6.75
2018-05-14T07:39:54.013Z,6.10
2018-05-14T07:44:50.068Z,6.75
2018-05-14T07:49:45.752Z,5.80
2018-05-14T07:54:41.651Z,6.20
2018-05-14T07:59:37.518Z,5.65
2018-05-14T08:04:33.404Z,6.12
2018-05-14T08:09:29.328Z,5.93
2018-05-14T08:14:25.190Z,5.37
2018-05-14T08:19:21.091Z,5.15
2018-05-14T08:24:16.954Z,4.68
2018-05-14T08:29:12.847Z,4.75
2018-05-14T08:34:08.693Z,4.72
2018-05-14T08:39:04.606Z,4.97
2018-05-14T08:44:00.503Z,4.20
2018-05-14T08:48:56.351Z,3.72
2018-05-14T08:53:52.227Z,4.37
2018-05-14T08:58:48.120Z,3.87
2018-05-14T09:03:43.987Z,3.80
2018-05-14T09:08:39.899Z,3.60
2018-05-14T09:13:35.853Z,3.65
2018-05-14T09:18:31.789Z,3.50
2018-05-14T09:23:27.651Z,3.42
2018-05-14T09:28:23.532Z,3.90
2018-05-14T09:33:19.431Z,3.03
2018-05-14T09:38:15.337Z,3.08
2018-05-14T09:43:11.242Z,3.95
2018-05-14T09:48:07.113Z,3.58
2018-05-14T09:53:02.990Z,4.20
2018-05-14T09:57:58.891Z,4.30
2018-05-14T10:02:54.762Z,4.00
2018-05-14T10:07:50.672Z,3.92
2018-05-14T10:12:46.514Z,4.32
2018-05-14T10:17:42.409Z,4.57
2018-05-14T10:22:38.329Z,4.03
2018-05-14T10:27:34.247Z,11.60
2018-05-14T10:32:30.093Z,9.45
2018-05-14T10:37:26.020Z,4.45
2018-05-14T10:42:21.926Z,3.65
2018-05-14T10:47:17.767Z,4.37
2018-05-14T10:52:13.682Z,4.18
2018-05-14T10:57:09.540Z,3.42
2018-05-14T11:02:05.425Z,3.20
2018-05-14T11:07:01.332Z,3.28
2018-05-14T11:11:57.209Z,3.70
2018-05-14T11:16:53.105Z,3.65
2018-05-14T11:21:48.959Z,3.60
2018-05-14T11:26:44.831Z,4.15
2018-05-14T11:31:40.748Z,4.10
2018-05-14T11:36:36.648Z,3.87
2018-05-14T11:41:32.512Z,4.43
2018-05-14T11:46:28.373Z,3.65
2018-05-14T11:51:24.220Z,3.90
2018-05-14T11:56:20.100Z,3.95
2018-05-14T12:01:15.997Z,3.75
2018-05-14T12:06:11.913Z,4.22
2018-05-14T12:11:07.811Z,3.85
2018-05-14T12:16:03.758Z,4.05
2018-05-14T12:20:59.660Z,4.00
2018-05-14T12:25:55.593Z,4.43
2018-05-14T12:30:51.470Z,4.28
2018-05-14T12:35:47.368Z,4.18
2018-05-14T12:40:43.200Z,4.30
2018-05-14T12:45:39.075Z,4.18
2018-05-14T12:50:34.995Z,3.67
2018-05-14T12:55:30.946Z,3.92
2018-05-14T13:00:26.803Z,4.20
2018-05-14T13:05:22.688Z,3.80
2018-05-14T13:10:18.553Z,3.83
2018-05-14T13:15:14.456Z,3.47
2018-05-14T13:20:10.360Z,3.37
2018-05-14T13:25:06.263Z,3.47
2018-05-14T13:30:02.157Z,3.35
2018-05-14T13:34:58.060Z,3.80
2018-05-14T13:39:53.941Z,3.17
2018-05-14T13:44:49.820Z,3.50
2018-05-14T13:49:45.774Z,3.45
2018-05-14T13:54:41.611Z,4.28
2018-05-14T13:59:37.487Z,3.33
2018-05-14T14:04:33.360Z,3.75
2018-05-14T14:09:29.218Z,4.15
2018-05-14T14:14:25.079Z,3.72
2018-05-14T14:19:20.976Z,3.92
2018-05-14T14:24:16.919Z,4.70
2018-05-14T14:29:12.724Z,4.83
2018-05-14T14:34:08.601Z,5.00
2018-05-14T14:39:04.508Z,4.60
2018-05-14T14:44:00.372Z,4.37
2018-05-14T14:48:56.222Z,4.57
2018-05-14T14:53:52.131Z,5.20
2018-05-14T14:58:48.031Z,5.25
2018-05-14T15:03:43.906Z,4.90
2018-05-14T15:08:39.842Z,4.87
2018-05-14T15:13:35.647Z,5.15
2018-05-14T15:18:31.568Z,4.18
2018-05-14T15:23:27.446Z,4.32
2018-05-14T15:28:23.303Z,5.47
2018-05-14T15:33:19.166Z,6.22
2018-05-14T15:38:15.071Z,4.43
2018-05-14T15:43:10.956Z,4.37
2018-05-14T15:48:06.840Z,4.95
2018-05-14T15:53:02.736Z,4.62
2018-05-14T15:57:58.623Z,4.37
2018-05-14T16:02:54.543Z,3.92
2018-05-14T16:07:50.400Z,4.05
2018-05-14T16:12:46.311Z,4.22
2018-05-14T16:17:42.175Z,47.40
2018-05-14T16:22:38.021Z,4.40
2018-05-14T16:27:33.908Z,4.53
2018-05-14T16:32:29.791Z,8.43
2018-05-14T16:37:25.649Z,4.40
2018-05-14T16:42:21.599Z,4.43
2018-05-14T16:47:17.483Z,4.12
2018-05-14T16:52:13.389Z,4.28
2018-05-14T16:57:09.265Z,4.50
2018-05-14T17:02:05.158Z,4.43
2018-05-14T17:07:01.001Z,4.18
2018-05-14T17:11:56.896Z,4.30
2018-05-14T17:16:52.782Z,4.40
2018-05-14T17:21:48.632Z,4.22
2018-05-14T17:26:44.520Z,4.70
2018-05-14T17:31:40.395Z,4.37
2018-05-14T17:36:36.297Z,7.20
2018-05-14T17:41:32.172Z,5.93
2018-05-14T17:46:28.047Z,6.40
2018-05-14T17:51:23.952Z,6.45
2018-05-14T17:56:19.820Z,6.25
2018-05-14T18:01:15.740Z,6.43
2018-05-14T18:06:11.686Z,6.68
2018-05-14T18:11:07.581Z,6.82
2018-05-14T18:16:03.449Z,6.82
2018-05-14T18:20:59.393Z,7.00
2018-05-14T18:26:01.368Z,6.07
2018-05-14T18:31:02.330Z,6.40
2018-05-14T18:35:58.192Z,5.85
2018-05-14T18:40:54.042Z,6.55
2018-05-14T18:45:49.902Z,4.85
2018-05-14T18:50:45.766Z,4.40
2018-05-14T18:55:41.647Z,4.35
2018-05-14T19:00:37.547Z,4.37
2018-05-14T19:05:33.411Z,4.70
2018-05-14T19:10:35.279Z,4.35
2018-05-14T19:15:37.183Z,3.85
2018-05-14T19:20:33.415Z,3.78
2018-05-14T19:25:29.315Z,4.07
2018-05-14T19:30:25.198Z,4.20
2018-05-14T19:35:27.445Z,4.12
2018-05-14T19:40:29.414Z,4.03
2018-05-14T19:45:25.260Z,3.80
2018-05-14T19:50:21.157Z,3.90
2018-05-14T19:55:17.313Z,4.20
2018-05-14T20:00:13.195Z,3.65
2018-05-14T20:05:09.066Z,3.97
2018-05-14T20:10:04.940Z,3.92
2018-05-14T20:15:00.834Z,3.83
2018-05-14T20:19:56.801Z,4.10
2018-05-14T20:24:53.026Z,4.10
2018-05-14T20:29:48.877Z,3.90
2018-05-14T20:34:44.787Z,3.63
2018-05-14T20:39:40.681Z,3.77
2018-05-14T20:44:36.648Z,3.67
2018-05-14T20:49:33.009Z,3.73
2018-05-14T20:54:28.868Z,3.70
2018-05-14T20:59:24.754Z,3.70
2018-05-14T21:04:20.636Z,3.60
2018-05-14T21:09:16.505Z,3.80
2018-05-14T21:14:12.399Z,3.37
2018-05-14T21:19:08.278Z,3.90
2018-05-14T21:24:04.147Z,3.60
2018-05-14T21:29:00.037Z,3.90
2018-05-14T21:33:55.875Z,3.50
2018-05-14T21:38:51.813Z,3.90
2018-05-14T21:43:47.684Z,3.90
2018-05-14T21:48:43.546Z,3.80
2018-05-14T21:53:46.531Z,3.40
2018-05-14T21:58:42.729Z,4.03
2018-05-14T22:03:38.739Z,4.10
2018-05-14T22:08:34.810Z,4.10
2018-05-14T22:13:30.859Z,3.60
2018-05-14T22:18:27.135Z,3.80
2018-05-14T22:23:23.017Z,4.10
2018-05-14T22:28:18.930Z,3.77
2018-05-14T22:33:14.778Z,3.97
2018-05-14T22:38:10.668Z,3.70
2018-05-14T22:43:06.529Z,3.83
2018-05-14T22:48:02.407Z,3.90
2018-05-14T22:52:58.286Z,3.63
2018-05-14T22:57:54.158Z,4.47
2018-05-14T23:02:50.033Z,4.10
2018-05-14T23:07:45.903Z,4.23
2018-05-14T23:12:41.823Z,4.03
2018-05-14T23:17:37.696Z,4.43
2018-05-14T23:22:39.665Z,4.10
2018-05-14T23:27:35.559Z,4.10
2018-05-14T23:32:31.463Z,3.83
2018-05-14T23:37:27.340Z,3.93
2018-05-14T23:42:23.214Z,4.13
2018-05-14T23:47:19.105Z,4.13
2018-05-14T23:52:14.977Z,4.30
2018-05-14T23:57:10.862Z,3.90
